Rickmers Jakarta — V7FE9 — position and weather

sailwx.info

Track history (hours):
 
Tides and Currents Weather Stations Pressure Air Temp Water Temp Dewpoint Dewpoint Depression Visibility Wind Speed Wind Dir Waves Ship Positions

Rickmers Jakarta

Last reported at 2018-Feb-02 14:19 UTC. Time now 2018-Feb-17 19:32 UTC.
Position N 09°23' W 079°55'.
Warning: this ship's position is 15 days out of date.

Length 193 m; beam 27.8 m; draft 11.2 m.

Type: Ship (hazmat cat A). MMSI: 538001921.

Date/timePositionNaut miles runAvg speedWind from/ knotsBaromVisibWave heightAir tempDewpointWater temp
2018-Feb-02 14:19N 09°23' W 079°55'0 0.0
2018-Feb-02 13:58N 09°23' W 079°55'0 0.0
2018-Feb-02 13:28N 09°23' W 079°55'0 0.0
2018-Feb-02 12:58N 09°23' W 079°55'0 0.0
2018-Feb-02 12:28N 09°23' W 079°55'0 0.0
2018-Feb-02 11:58N 09°23' W 079°55'0 0.0
2018-Feb-02 11:28N 09°23' W 079°55'0 0.1
2018-Feb-02 10:58N 09°23' W 079°55'0 0.0
2018-Feb-02 10:28N 09°23' W 079°55'0 0.0
2018-Feb-02 09:58N 09°23' W 079°55'0 0.0
2018-Feb-02 09:28N 09°23' W 079°55'0 0.0
2018-Feb-02 08:58N 09°23' W 079°55'0 0.0
2018-Feb-02 08:25N 09°23' W 079°55'0 0.0
2018-Feb-02 07:58N 09°23' W 079°55'0 0.0
2018-Feb-02 07:28N 09°23' W 079°55'0 0.0
2018-Feb-02 06:58N 09°23' W 079°55'0 0.0
2018-Feb-02 06:28N 09°23' W 079°55'0 0.0
2018-Feb-02 05:58N 09°23' W 079°55'0 0.0
2018-Feb-02 05:28N 09°23' W 079°55'0 0.0
2018-Feb-02 04:58N 09°23' W 079°55'0 0.1
2018-Feb-02 04:28N 09°23' W 079°55'0 0.1
2018-Feb-02 03:58N 09°23' W 079°55'0 0.0
2018-Feb-02 03:28N 09°23' W 079°55'0 0.0
2018-Feb-02 02:58N 09°23' W 079°55'0 0.1
2018-Feb-02 02:28N 09°23' W 079°55'0 0.0
2018-Feb-02 01:58N 09°23' W 079°55'0 0.0
2018-Feb-02 01:28N 09°23' W 079°55'0 0.0
2018-Feb-02 00:58N 09°23' W 079°55'0 0.0
2018-Feb-02 00:25N 09°23' W 079°55'0 0.0
2018-Feb-01 23:55N 09°23' W 079°55'0 0.0
2018-Feb-01 23:28N 09°23' W 079°55'0 0.0
2018-Feb-01 22:58N 09°23' W 079°55'0 0.1
2018-Feb-01 21:58N 09°23' W 079°55'1 1.4
2018-Feb-01 21:30N 09°22' W 079°55'6 3.1
2018-Feb-01 19:30N 09°16' W 079°55'3 4.4
2018-Feb-01 18:56N 09°13' W 079°55'4 9.9
2018-Feb-01 18:30N 09°11' W 079°52'369 8.1
2018-Jan-30 21:00N 09°18' W 086°06'   050 / 81004.010.8 29.024.025.0
2018-Jan-28 09:00N 17°18' W 102°18'58017.6 220 / 71010.010.8 27.022.628.0
2018-Jan-27 00:00N 22°36' W 110°54'43117.2 350 / 161015.010.8 28.019.621.0
2018-Jan-25 23:00N 28°06' W 116°00'19617.8 340 / 141018.010.8 21.016.018.0
2018-Jan-25 11:59N 31°11' W 117°14'817.1
2018-Jan-25 11:30N 31°19' W 117°18'1317.1
2018-Jan-25 10:44N 31°31' W 117°23'517.0
2018-Jan-25 10:27N 31°36' W 117°24'2717.3
2018-Jan-25 08:53N 32°01' W 117°35'717.4
2018-Jan-25 08:30N 32°08' W 117°37'917.4
2018-Jan-25 08:00N 32°16' W 117°40'917.6
2018-Jan-25 07:30N 32°24' W 117°44'816.8
2018-Jan-25 07:00N 32°32' W 117°47'815.0
2018-Jan-25 06:30N 32°39' W 117°51'917.1
2018-Jan-25 06:00N 32°47' W 117°53'917.7
2018-Jan-25 05:30N 32°56' W 117°57'917.8
2018-Jan-25 05:00N 33°04' W 117°60'917.7
2018-Jan-25 04:30N 33°12' W 118°03'815.2
2018-Jan-25 04:00N 33°20' W 118°07'611.7
2018-Jan-25 03:30N 33°25' W 118°09'611.8
2018-Jan-25 03:00N 33°31' W 118°11'611.7
2018-Jan-25 02:30N 33°36' W 118°13'611.3
2018-Jan-25 01:59N 33°42' W 118°11'3 0.4
2018-Jan-24 18:16N 33°45' W 118°12'0 0.0
2018-Jan-24 17:52N 33°45' W 118°12'0 0.0
2018-Jan-24 17:28N 33°45' W 118°12'0 0.0
2018-Jan-24 16:52N 33°45' W 118°12'0 0.0
2018-Jan-24 16:10N 33°45' W 118°12'0 0.0
2018-Jan-24 15:58N 33°45' W 118°12'0 0.0
2018-Jan-24 15:28N 33°45' W 118°12'0 0.0
2018-Jan-24 14:52N 33°45' W 118°12'0 0.0
2018-Jan-24 14:28N 33°45' W 118°12'0 0.0
2018-Jan-24 13:58N 33°45' W 118°12'0 0.0
2018-Jan-24 13:16N 33°45' W 118°12'0 0.0
2018-Jan-24 12:58N 33°45' W 118°12'0 0.0
2018-Jan-24 09:04N 33°45' W 118°12'0 0.0
2018-Jan-24 08:52N 33°45' W 118°12'0 0.0
2018-Jan-23 17:34N 33°45' W 118°12'0 0.0
2018-Jan-23 17:28N 33°45' W 118°12'0 0.0
2018-Jan-23 16:58N 33°45' W 118°12'0 0.0
2018-Jan-23 16:28N 33°45' W 118°12'0 0.0
2018-Jan-23 15:58N 33°45' W 118°12'0 0.0
2018-Jan-23 15:22N 33°45' W 118°12'0 0.0
2018-Jan-23 14:58N 33°45' W 118°12'0 0.0
2018-Jan-23 14:22N 33°45' W 118°12'  
Track history (hours):
 
Tides and Currents Weather Stations Pressure Air Temp Water Temp Dewpoint Dewpoint Depression Visibility Wind Speed Wind Dir Waves Ship Positions

Rickmers Jakarta

Last reported at 2018-Feb-02 14:19 UTC. Time now 2018-Feb-17 19:32 UTC.
Position N 09°23' W 079°55'.
Warning: this ship's position is 15 days out of date.

Length 193 m; beam 27.8 m; draft 11.2 m.

Type: Ship (hazmat cat A). MMSI: 538001921.

Date/timePositionNaut miles runAvg speedWind from/ knotsBaromVisibWave heightAir tempDewpointWater temp
2018-Feb-02 14:19N 09°23' W 079°55'0 0.0
2018-Feb-02 13:58N 09°23' W 079°55'0 0.0
2018-Feb-02 13:28N 09°23' W 079°55'0 0.0
2018-Feb-02 12:58N 09°23' W 079°55'0 0.0
2018-Feb-02 12:28N 09°23' W 079°55'0 0.0
2018-Feb-02 11:58N 09°23' W 079°55'0 0.0
2018-Feb-02 11:28N 09°23' W 079°55'0 0.1
2018-Feb-02 10:58N 09°23' W 079°55'0 0.0
2018-Feb-02 10:28N 09°23' W 079°55'0 0.0
2018-Feb-02 09:58N 09°23' W 079°55'0 0.0
2018-Feb-02 09:28N 09°23' W 079°55'0 0.0
2018-Feb-02 08:58N 09°23' W 079°55'0 0.0
2018-Feb-02 08:25N 09°23' W 079°55'0 0.0
2018-Feb-02 07:58N 09°23' W 079°55'0 0.0
2018-Feb-02 07:28N 09°23' W 079°55'0 0.0
2018-Feb-02 06:58N 09°23' W 079°55'0 0.0
2018-Feb-02 06:28N 09°23' W 079°55'0 0.0
2018-Feb-02 05:58N 09°23' W 079°55'0 0.0
2018-Feb-02 05:28N 09°23' W 079°55'0 0.0
2018-Feb-02 04:58N 09°23' W 079°55'0 0.1
2018-Feb-02 04:28N 09°23' W 079°55'0 0.1
2018-Feb-02 03:58N 09°23' W 079°55'0 0.0
2018-Feb-02 03:28N 09°23' W 079°55'0 0.0
2018-Feb-02 02:58N 09°23' W 079°55'0 0.1
2018-Feb-02 02:28N 09°23' W 079°55'0 0.0
2018-Feb-02 01:58N 09°23' W 079°55'0 0.0
2018-Feb-02 01:28N 09°23' W 079°55'0 0.0
2018-Feb-02 00:58N 09°23' W 079°55'0 0.0
2018-Feb-02 00:25N 09°23' W 079°55'0 0.0
2018-Feb-01 23:55N 09°23' W 079°55'0 0.0
2018-Feb-01 23:28N 09°23' W 079°55'0 0.0
2018-Feb-01 22:58N 09°23' W 079°55'0 0.1
2018-Feb-01 21:58N 09°23' W 079°55'1 1.4
2018-Feb-01 21:30N 09°22' W 079°55'6 3.1
2018-Feb-01 19:30N 09°16' W 079°55'3 4.4
2018-Feb-01 18:56N 09°13' W 079°55'4 9.9
2018-Feb-01 18:30N 09°11' W 079°52'369 8.1
2018-Jan-30 21:00N 09°18' W 086°06'   050 / 81004.010.8 29.024.025.0
2018-Jan-28 09:00N 17°18' W 102°18'58017.6 220 / 71010.010.8 27.022.628.0
2018-Jan-27 00:00N 22°36' W 110°54'43117.2 350 / 161015.010.8 28.019.621.0
2018-Jan-25 23:00N 28°06' W 116°00'19617.8 340 / 141018.010.8 21.016.018.0
2018-Jan-25 11:59N 31°11' W 117°14'817.1
2018-Jan-25 11:30N 31°19' W 117°18'1317.1
2018-Jan-25 10:44N 31°31' W 117°23'517.0
2018-Jan-25 10:27N 31°36' W 117°24'2717.3
2018-Jan-25 08:53N 32°01' W 117°35'717.4
2018-Jan-25 08:30N 32°08' W 117°37'917.4
2018-Jan-25 08:00N 32°16' W 117°40'917.6
2018-Jan-25 07:30N 32°24' W 117°44'816.8
2018-Jan-25 07:00N 32°32' W 117°47'815.0
2018-Jan-25 06:30N 32°39' W 117°51'917.1
2018-Jan-25 06:00N 32°47' W 117°53'917.7
2018-Jan-25 05:30N 32°56' W 117°57'917.8
2018-Jan-25 05:00N 33°04' W 117°60'917.7
2018-Jan-25 04:30N 33°12' W 118°03'815.2
2018-Jan-25 04:00N 33°20' W 118°07'611.7
2018-Jan-25 03:30N 33°25' W 118°09'611.8
2018-Jan-25 03:00N 33°31' W 118°11'611.7
2018-Jan-25 02:30N 33°36' W 118°13'611.3
2018-Jan-25 01:59N 33°42' W 118°11'3 0.4
2018-Jan-24 18:16N 33°45' W 118°12'0 0.0
2018-Jan-24 17:52N 33°45' W 118°12'0 0.0
2018-Jan-24 17:28N 33°45' W 118°12'0 0.0
2018-Jan-24 16:52N 33°45' W 118°12'0 0.0
2018-Jan-24 16:10N 33°45' W 118°12'0 0.0
2018-Jan-24 15:58N 33°45' W 118°12'0 0.0
2018-Jan-24 15:28N 33°45' W 118°12'0 0.0
2018-Jan-24 14:52N 33°45' W 118°12'0 0.0
2018-Jan-24 14:28N 33°45' W 118°12'0 0.0
2018-Jan-24 13:58N 33°45' W 118°12'0 0.0
2018-Jan-24 13:16N 33°45' W 118°12'0 0.0
2018-Jan-24 12:58N 33°45' W 118°12'0 0.0
2018-Jan-24 09:04N 33°45' W 118°12'0 0.0
2018-Jan-24 08:52N 33°45' W 118°12'0 0.0
2018-Jan-23 17:34N 33°45' W 118°12'0 0.0
2018-Jan-23 17:28N 33°45' W 118°12'0 0.0
2018-Jan-23 16:58N 33°45' W 118°12'0 0.0
2018-Jan-23 16:28N 33°45' W 118°12'0 0.0
2018-Jan-23 15:58N 33°45' W 118°12'0 0.0
2018-Jan-23 15:22N 33°45' W 118°12'0 0.0
2018-Jan-23 14:58N 33°45' W 118°12'0 0.0
2018-Jan-23 14:22N 33°45' W 118°12'  

Dump ship's entire track history